createdAt,value
2018-05-29T00:02:12.580Z,9.93
2018-05-29T00:04:40.993Z,10.70
2018-05-29T00:07:08.448Z,11.32
2018-05-29T00:09:35.904Z,10.50
2018-05-29T00:12:03.389Z,10.15
2018-05-29T00:14:31.615Z,10.48
2018-05-29T00:16:59.036Z,10.00
2018-05-29T00:19:26.812Z,8.98
2018-05-29T00:21:54.224Z,9.30
2018-05-29T00:24:21.672Z,9.63
2018-05-29T00:26:49.253Z,9.77
2018-05-29T00:29:16.745Z,9.13
2018-05-29T00:31:44.954Z,9.80
2018-05-29T00:34:12.665Z,11.35
2018-05-29T00:36:40.100Z,10.25
2018-05-29T00:39:07.565Z,10.27
2018-05-29T00:41:35.024Z,10.48
2018-05-29T00:44:02.551Z,10.52
2018-05-29T00:46:30.019Z,10.65
2018-05-29T00:48:57.644Z,11.57
2018-05-29T00:51:25.096Z,11.27
2018-05-29T00:53:53.540Z,11.57
2018-05-29T00:56:21.324Z,10.70
2018-05-29T00:58:48.780Z,10.85
2018-05-29T01:01:16.216Z,11.43
2018-05-29T01:03:43.703Z,11.88
2018-05-29T01:06:11.924Z,11.12
2018-05-29T01:08:39.376Z,10.70
2018-05-29T01:11:07.288Z,10.52
2018-05-29T01:13:34.755Z,10.55
2018-05-29T01:16:02.206Z,10.18
2018-05-29T01:18:29.640Z,10.20
2018-05-29T01:20:57.141Z,10.27
2018-05-29T01:23:25.343Z,10.60
2018-05-29T01:25:53.128Z,10.52
2018-05-29T01:28:20.573Z,9.35
2018-05-29T01:30:48.004Z,10.95
2018-05-29T01:33:15.745Z,11.05
2018-05-29T01:35:43.196Z,10.43
2018-05-29T01:38:10.652Z,10.50
2018-05-29T01:40:38.420Z,11.10
2018-05-29T01:43:05.984Z,11.35
2018-05-29T01:45:33.436Z,10.88
2018-05-29T01:48:01.124Z,10.95
2018-05-29T01:50:28.584Z,11.12
2018-05-29T01:52:56.018Z,10.48
2018-05-29T01:55:24.761Z,11.30
2018-05-29T01:57:52.207Z,10.60
2018-05-29T02:00:19.664Z,10.13
2018-05-29T02:02:47.368Z,10.70
2018-05-29T02:05:14.792Z,11.10
2018-05-29T02:07:42.266Z,10.82
2018-05-29T02:10:10.768Z,10.60
2018-05-29T02:12:38.204Z,10.93
2018-05-29T02:15:05.681Z,10.57
2018-05-29T02:17:33.451Z,10.93
2018-05-29T02:20:01.667Z,11.18
2018-05-29T02:22:29.129Z,11.23
2018-05-29T02:24:56.945Z,11.85
2018-05-29T02:27:24.400Z,11.38
2018-05-29T02:29:52.676Z,10.80
2018-05-29T02:32:20.108Z,11.57
2018-05-29T02:34:47.597Z,10.80
2018-05-29T02:37:15.352Z,11.77
2018-05-29T02:39:42.809Z,11.10
2018-05-29T02:42:10.268Z,10.73
2018-05-29T02:44:37.719Z,10.90
2018-05-29T02:47:05.189Z,10.80
2018-05-29T02:49:32.645Z,11.18
2018-05-29T02:52:00.464Z,11.30
2018-05-29T02:54:28.020Z,10.98
2018-05-29T02:56:55.488Z,10.80
2018-05-29T02:59:22.984Z,10.40
2018-05-29T03:01:50.436Z,10.45
2018-05-29T03:04:17.868Z,10.85
2018-05-29T03:06:45.324Z,11.45
2018-05-29T03:09:12.808Z,11.10
2018-05-29T03:11:40.228Z,10.75
2018-05-29T03:14:08.952Z,11.05
2018-05-29T03:16:36.404Z,10.88
2018-05-29T03:19:03.973Z,10.88
2018-05-29T03:21:31.437Z,11.05
2018-05-29T03:23:59.652Z,10.80
2018-05-29T03:26:27.115Z,11.93
2018-05-29T03:28:54.576Z,11.82
2018-05-29T03:31:22.256Z,11.20
2018-05-29T03:33:49.761Z,11.65
2018-05-29T03:36:18.393Z,11.48
2018-05-29T03:38:46.592Z,13.07
2018-05-29T03:41:14.054Z,12.98
2018-05-29T03:43:42.269Z,11.18
2018-05-29T03:46:09.736Z,12.75
2018-05-29T03:48:37.216Z,14.40
2018-05-29T03:51:04.648Z,11.93
2018-05-29T03:53:32.156Z,12.60
2018-05-29T03:55:59.612Z,13.43
2018-05-29T03:58:27.032Z,12.10
2018-05-29T04:00:54.693Z,12.02
2018-05-29T04:03:22.168Z,11.27
2018-05-29T04:05:49.644Z,10.77
2018-05-29T04:08:17.372Z,10.68
2018-05-29T04:10:45.585Z,10.45
2018-05-29T04:13:13.040Z,9.68
2018-05-29T04:15:40.496Z,9.70
2018-05-29T04:18:08.156Z,11.12
2018-05-29T04:20:35.617Z,9.70
2018-05-29T04:23:04.088Z,10.05
2018-05-29T04:25:31.519Z,9.75
2018-05-29T04:27:58.960Z,10.70
2018-05-29T04:30:26.440Z,10.55
2018-05-29T04:32:53.876Z,10.10
2018-05-29T04:35:21.351Z,10.75
2018-05-29T04:37:49.148Z,10.70
2018-05-29T04:40:17.447Z,9.68
2018-05-29T04:42:44.904Z,8.88
2018-05-29T04:45:12.924Z,9.45
2018-05-29T04:47:40.488Z,8.65
2018-05-29T04:50:07.967Z,8.27
2018-05-29T04:52:35.432Z,8.77
2018-05-29T04:55:03.664Z,8.73
2018-05-29T04:57:31.101Z,10.15
2018-05-29T04:59:58.588Z,8.38
2018-05-29T05:02:26.893Z,8.10
2018-05-29T05:04:54.320Z,8.30
2018-05-29T05:07:21.805Z,8.45
2018-05-29T05:09:49.260Z,8.73
2018-05-29T05:12:16.717Z,8.40
2018-05-29T05:14:44.892Z,8.40
2018-05-29T05:17:12.964Z,8.70
2018-05-29T05:19:40.995Z,8.65
2018-05-29T05:22:09.104Z,8.88
2018-05-29T05:24:36.528Z,9.35
2018-05-29T05:27:03.964Z,8.80
2018-05-29T05:29:32.001Z,9.13
2018-05-29T05:32:00.208Z,9.65
2018-05-29T05:34:28.132Z,9.55
2018-05-29T05:36:55.560Z,10.70
2018-05-29T05:39:24.544Z,10.48
2018-05-29T05:41:52.012Z,10.88
2018-05-29T05:44:20.289Z,10.88
2018-05-29T05:46:48.336Z,12.70
2018-05-29T05:49:15.792Z,11.38
2018-05-29T05:51:43.896Z,13.75
2018-05-29T05:54:12.036Z,12.88
2018-05-29T05:56:40.444Z,15.02
2018-05-29T05:59:08.745Z,14.57
2018-05-29T06:01:36.784Z,15.85
2018-05-29T06:04:04.948Z,15.70
2018-05-29T06:06:33.124Z,16.98
2018-05-29T06:09:00.670Z,15.82
2018-05-29T06:11:28.743Z,16.42
2018-05-29T06:13:56.944Z,15.80
2018-05-29T06:16:25.219Z,16.05
2018-05-29T06:18:52.596Z,15.35
2018-05-29T06:21:20.840Z,14.87
2018-05-29T06:23:49.018Z,14.73
2018-05-29T06:26:17.344Z,15.40
2018-05-29T06:28:46.328Z,14.13
2018-05-29T06:31:15.404Z,14.07
2018-05-29T06:33:42.920Z,13.38
2018-05-29T06:36:10.856Z,14.20
2018-05-29T06:38:39.147Z,14.35
2018-05-29T06:41:06.527Z,14.35
2018-05-29T06:43:34.812Z,13.73
2018-05-29T06:46:02.912Z,13.32
2018-05-29T06:48:31.207Z,11.88
2018-05-29T06:51:00.164Z,11.77
2018-05-29T06:53:28.289Z,11.60
2018-05-29T06:55:56.488Z,10.88
2018-05-29T06:58:24.673Z,10.93
2018-05-29T07:00:52.984Z,10.23
2018-05-29T07:03:21.260Z,9.43
2018-05-29T07:05:49.512Z,8.68
2018-05-29T07:08:16.984Z,9.40
2018-05-29T07:10:44.453Z,9.15
2018-05-29T07:13:12.747Z,8.57
2018-05-29T07:15:41.721Z,8.23
2018-05-29T07:18:09.225Z,8.65
2018-05-29T07:20:36.639Z,7.82
2018-05-29T07:23:05.728Z,7.72
2018-05-29T07:25:33.700Z,7.68
2018-05-29T07:28:01.849Z,7.70
2018-05-29T07:30:30.151Z,7.55
2018-05-29T07:32:58.613Z,8.32
2018-05-29T07:35:27.104Z,7.72
2018-05-29T07:37:55.155Z,8.13
2018-05-29T07:40:23.136Z,7.43
2018-05-29T07:42:51.376Z,7.57
2018-05-29T07:45:19.625Z,6.90
2018-05-29T07:47:48.590Z,7.20
2018-05-29T07:50:17.559Z,6.55
2018-05-29T07:52:46.005Z,6.32
2018-05-29T07:55:14.908Z,6.47
2018-05-29T07:57:43.106Z,6.43
2018-05-29T08:00:11.407Z,6.55
2018-05-29T08:02:38.891Z,6.47
2018-05-29T08:05:07.786Z,6.57
2018-05-29T08:07:35.270Z,6.65
2018-05-29T08:10:03.535Z,7.03
2018-05-29T08:12:31.008Z,6.70
2018-05-29T08:14:59.275Z,7.10
2018-05-29T08:17:27.520Z,6.57
2018-05-29T08:19:55.752Z,6.70
2018-05-29T08:22:23.905Z,6.72
2018-05-29T08:24:52.219Z,6.22
2018-05-29T08:27:20.456Z,6.97
2018-05-29T08:29:48.428Z,6.37
2018-05-29T08:32:16.500Z,6.25
2018-05-29T08:34:44.826Z,6.18
2018-05-29T08:37:13.917Z,6.80
2018-05-29T08:39:42.829Z,6.78
2018-05-29T08:42:13.240Z,6.07
2018-05-29T08:44:42.315Z,6.03
2018-05-29T08:47:10.916Z,6.62
2018-05-29T08:49:39.962Z,5.95
2018-05-29T08:52:08.434Z,6.40
2018-05-29T08:54:36.512Z,6.70
2018-05-29T08:57:04.835Z,6.15
2018-05-29T08:59:32.958Z,7.35
2018-05-29T09:02:01.084Z,6.68
2018-05-29T09:04:29.048Z,6.65
2018-05-29T09:06:57.228Z,7.78
2018-05-29T09:09:24.688Z,6.47
2018-05-29T09:11:54.078Z,6.75
2018-05-29T09:14:21.599Z,6.65
2018-05-29T09:16:50.020Z,6.70
2018-05-29T09:19:17.504Z,7.97
2018-05-29T09:21:46.420Z,7.28
2018-05-29T09:24:14.954Z,7.40
2018-05-29T09:26:43.709Z,6.43
2018-05-29T09:29:11.858Z,6.75
2018-05-29T09:31:39.986Z,6.18
2018-05-29T09:34:08.133Z,5.85
2018-05-29T09:36:35.626Z,5.95
2018-05-29T09:39:04.466Z,5.82
2018-05-29T09:41:32.609Z,6.43
2018-05-29T09:44:00.035Z,5.70
2018-05-29T09:46:28.366Z,5.93
2018-05-29T09:48:55.879Z,5.95
2018-05-29T09:51:24.093Z,5.75
2018-05-29T09:53:52.281Z,6.03
2018-05-29T09:56:20.616Z,5.75
2018-05-29T09:58:48.848Z,5.53
2018-05-29T10:01:17.036Z,5.57
2018-05-29T10:03:45.325Z,5.40
2018-05-29T10:06:14.212Z,5.40
2018-05-29T10:08:43.005Z,5.10
2018-05-29T10:11:11.162Z,4.00
2018-05-29T10:13:39.411Z,4.53
2018-05-29T10:16:07.524Z,5.28
2018-05-29T10:18:35.659Z,4.80
2018-05-29T10:21:03.732Z,4.68
2018-05-29T10:23:31.801Z,4.37
2018-05-29T10:25:59.912Z,4.75
2018-05-29T10:28:27.976Z,4.75
2018-05-29T10:30:56.945Z,3.87
2018-05-29T10:33:26.016Z,4.05
2018-05-29T10:35:54.173Z,4.30
2018-05-29T10:38:22.276Z,3.97
2018-05-29T10:40:50.156Z,4.15
2018-05-29T10:43:18.144Z,3.87
2018-05-29T10:45:46.705Z,3.67
2018-05-29T10:48:14.789Z,3.78
2018-05-29T10:50:43.749Z,3.28
2018-05-29T10:53:12.076Z,3.95
2018-05-29T10:55:41.703Z,4.05
2018-05-29T10:58:10.585Z,3.55
2018-05-29T11:00:39.464Z,3.33
2018-05-29T11:03:08.124Z,3.20
2018-05-29T11:05:36.115Z,2.90
2018-05-29T11:08:04.193Z,2.80
2018-05-29T11:10:32.958Z,3.05
2018-05-29T11:13:01.260Z,3.00
2018-05-29T11:15:28.817Z,3.10
2018-05-29T11:17:57.703Z,2.97
2018-05-29T11:20:27.387Z,3.90
2018-05-29T11:22:55.489Z,3.35
2018-05-29T11:25:23.765Z,2.87
2018-05-29T11:27:51.932Z,2.50
2018-05-29T11:30:19.713Z,3.10
2018-05-29T11:32:48.695Z,3.10
2018-05-29T11:35:17.776Z,2.80
2018-05-29T11:37:45.810Z,2.80
2018-05-29T11:40:13.228Z,3.42
2018-05-29T11:42:41.284Z,3.20
2018-05-29T11:45:09.664Z,3.03
2018-05-29T11:47:37.749Z,3.12
2018-05-29T11:50:07.447Z,3.30
2018-05-29T11:52:36.440Z,3.53
2018-05-29T11:55:04.393Z,3.40
2018-05-29T11:57:32.509Z,3.40
2018-05-29T12:00:00.664Z,3.33
2018-05-29T12:02:28.888Z,2.80
2018-05-29T12:04:57.095Z,3.15
2018-05-29T12:07:25.490Z,3.12
2018-05-29T12:09:54.692Z,3.33
2018-05-29T12:12:23.736Z,3.45
2018-05-29T12:14:52.068Z,3.53
2018-05-29T12:17:20.858Z,3.17
2018-05-29T12:19:49.936Z,3.30
2018-05-29T12:22:18.949Z,3.45
2018-05-29T12:24:47.312Z,3.85
2018-05-29T12:27:16.067Z,3.37
2018-05-29T12:29:43.525Z,3.05
2018-05-29T12:32:12.608Z,3.40
2018-05-29T12:34:41.128Z,3.78
2018-05-29T12:37:09.171Z,3.40
2018-05-29T12:39:37.244Z,3.17
2018-05-29T12:42:05.466Z,3.12
2018-05-29T12:44:34.606Z,3.12
2018-05-29T12:47:02.709Z,3.37
2018-05-29T12:49:31.092Z,3.28
2018-05-29T12:51:58.512Z,3.40
2018-05-29T12:54:26.632Z,3.22
2018-05-29T12:56:55.588Z,3.10
2018-05-29T12:59:23.790Z,3.00
2018-05-29T13:01:52.671Z,3.10
2018-05-29T13:04:20.628Z,2.87
2018-05-29T13:06:48.928Z,2.87
2018-05-29T13:09:17.759Z,3.37
2018-05-29T13:11:46.000Z,3.12
2018-05-29T13:14:14.768Z,3.00
2018-05-29T13:16:42.247Z,3.28
2018-05-29T13:19:10.594Z,2.97
2018-05-29T13:21:38.048Z,3.58
2018-05-29T13:24:06.054Z,3.65
2018-05-29T13:26:34.733Z,3.45
2018-05-29T13:29:03.697Z,3.50
2018-05-29T13:31:31.584Z,3.70
2018-05-29T13:33:59.674Z,3.50
2018-05-29T13:36:27.876Z,3.45
2018-05-29T13:38:56.116Z,3.60
2018-05-29T13:41:28.842Z,3.85
2018-05-29T13:43:57.264Z,3.55
2018-05-29T13:46:27.088Z,3.37
2018-05-29T13:48:56.035Z,3.72
2018-05-29T13:51:24.204Z,3.53
2018-05-29T13:53:52.276Z,3.70
2018-05-29T13:56:20.658Z,3.78
2018-05-29T13:58:48.834Z,3.80
2018-05-29T14:01:16.300Z,4.30
2018-05-29T14:03:44.258Z,3.83
2018-05-29T14:06:11.732Z,3.85
2018-05-29T14:08:39.885Z,4.43
2018-05-29T14:11:07.332Z,4.03
2018-05-29T14:13:35.612Z,4.20
2018-05-29T14:16:04.764Z,3.90
2018-05-29T14:18:33.912Z,4.30
2018-05-29T14:21:02.244Z,3.50
2018-05-29T14:23:30.468Z,3.83
2018-05-29T14:25:58.885Z,3.72
2018-05-29T14:28:26.856Z,3.62
2018-05-29T14:30:54.267Z,3.47
2018-05-29T14:33:21.710Z,3.67
2018-05-29T14:35:49.188Z,3.80
2018-05-29T14:38:16.652Z,3.47
2018-05-29T14:40:44.109Z,3.47
2018-05-29T14:43:12.413Z,3.40
2018-05-29T14:45:39.833Z,3.50
2018-05-29T14:48:07.300Z,3.40
2018-05-29T14:50:35.185Z,3.97
2018-05-29T14:53:03.457Z,4.03
2018-05-29T14:55:30.928Z,3.50
2018-05-29T14:57:58.947Z,4.03
2018-05-29T15:00:27.037Z,3.95
2018-05-29T15:02:55.141Z,3.80
2018-05-29T15:05:23.316Z,3.65
2018-05-29T15:07:50.770Z,4.20
2018-05-29T15:10:19.048Z,3.97
2018-05-29T15:12:47.084Z,4.22
2018-05-29T15:15:14.529Z,4.20
2018-05-29T15:17:41.981Z,3.50
2018-05-29T15:20:10.208Z,3.78
2018-05-29T15:22:38.280Z,4.30
2018-05-29T15:25:05.736Z,4.43
2018-05-29T15:27:33.192Z,3.80
2018-05-29T15:30:00.957Z,3.90
2018-05-29T15:32:29.104Z,4.03
2018-05-29T15:34:57.268Z,4.18
2018-05-29T15:37:25.376Z,4.05
2018-05-29T15:39:52.791Z,4.25
2018-05-29T15:42:20.252Z,4.15
2018-05-29T15:44:48.224Z,3.80
2018-05-29T15:47:16.432Z,4.53
2018-05-29T15:49:43.848Z,3.65
2018-05-29T15:52:11.934Z,4.37
2018-05-29T15:54:40.340Z,4.35
2018-05-29T15:57:07.784Z,4.03
2018-05-29T15:59:35.211Z,4.15
2018-05-29T16:02:02.936Z,4.75
2018-05-29T16:04:31.164Z,4.45
2018-05-29T16:06:58.696Z,4.50
2018-05-29T16:09:26.412Z,4.68
2018-05-29T16:11:53.860Z,4.40
2018-05-29T16:14:21.318Z,4.50
2018-05-29T16:16:49.256Z,4.30
2018-05-29T16:19:16.828Z,4.20
2018-05-29T16:21:45.236Z,4.45
2018-05-29T16:24:12.654Z,4.07
2018-05-29T16:26:41.178Z,4.15
2018-05-29T16:29:09.192Z,3.95
2018-05-29T16:31:37.216Z,4.10
2018-05-29T16:34:05.592Z,4.03
2018-05-29T16:36:33.827Z,3.65
2018-05-29T16:39:01.275Z,3.75
2018-05-29T16:41:28.733Z,4.03
2018-05-29T16:43:56.188Z,4.10
2018-05-29T16:46:23.617Z,4.00
2018-05-29T16:48:51.067Z,4.20
2018-05-29T16:51:19.380Z,4.35
2018-05-29T16:53:46.830Z,4.57
2018-05-29T16:56:14.292Z,4.20
2018-05-29T16:58:41.761Z,4.65
2018-05-29T17:01:09.260Z,4.57
2018-05-29T17:03:37.452Z,4.22
2018-05-29T17:06:05.185Z,4.75
2018-05-29T17:08:32.640Z,3.90
2018-05-29T17:11:00.067Z,3.75
2018-05-29T17:13:27.673Z,4.30
2018-05-29T17:15:55.124Z,4.32
2018-05-29T17:18:22.548Z,3.90
2018-05-29T17:20:50.756Z,3.45
2018-05-29T17:23:18.996Z,3.70
2018-05-29T17:25:46.440Z,3.70
2018-05-29T17:28:13.890Z,3.85
2018-05-29T17:30:41.353Z,4.00
2018-05-29T17:33:09.668Z,3.87
2018-05-29T17:35:37.125Z,3.70
2018-05-29T17:38:05.516Z,4.03
2018-05-29T17:40:32.976Z,3.83
2018-05-29T17:43:00.452Z,4.07
2018-05-29T17:45:29.280Z,4.15
2018-05-29T17:47:56.728Z,3.90
2018-05-29T17:50:24.178Z,3.95
2018-05-29T17:52:51.960Z,4.00
2018-05-29T17:55:19.428Z,4.10
2018-05-29T17:57:46.864Z,3.90
2018-05-29T18:00:14.576Z,4.03
2018-05-29T18:02:42.040Z,4.40
2018-05-29T18:05:09.488Z,4.18
2018-05-29T18:07:37.252Z,4.15
2018-05-29T18:10:05.694Z,4.65
2018-05-29T18:12:33.133Z,4.20
2018-05-29T18:15:00.600Z,4.32
2018-05-29T18:17:28.268Z,4.57
2018-05-29T18:19:55.740Z,4.97
2018-05-29T18:22:23.196Z,4.82
2018-05-29T18:24:50.940Z,5.07
2018-05-29T18:27:18.352Z,4.80
2018-05-29T18:29:46.572Z,4.78
2018-05-29T18:32:14.240Z,4.95
2018-05-29T18:34:41.842Z,4.75
2018-05-29T18:37:10.800Z,4.85
2018-05-29T18:39:38.556Z,5.03
2018-05-29T18:42:05.997Z,5.03
2018-05-29T18:44:33.496Z,4.75
2018-05-29T18:47:00.963Z,4.93
2018-05-29T18:49:28.389Z,4.70
2018-05-29T18:51:55.836Z,4.80
2018-05-29T18:54:23.715Z,4.68
2018-05-29T18:56:51.176Z,5.10
2018-05-29T18:59:18.777Z,4.75
2018-05-29T19:01:47.016Z,4.20
2018-05-29T19:04:15.997Z,4.75
2018-05-29T19:06:43.452Z,5.05
2018-05-29T19:09:10.900Z,4.85
2018-05-29T19:11:38.584Z,5.05
2018-05-29T19:14:06.068Z,5.43
2018-05-29T19:16:33.835Z,5.10
2018-05-29T19:19:01.288Z,4.93
2018-05-29T19:21:28.746Z,5.40
2018-05-29T19:23:56.808Z,4.97
2018-05-29T19:26:25.002Z,5.07
2018-05-29T19:28:53.288Z,4.90
2018-05-29T19:31:21.032Z,5.40
2018-05-29T19:33:48.449Z,4.95
2018-05-29T19:36:15.893Z,4.87
2018-05-29T19:38:44.287Z,5.35
2018-05-29T19:41:11.756Z,5.78
2018-05-29T19:43:39.216Z,5.47
2018-05-29T19:46:06.657Z,5.50
2018-05-29T19:48:34.132Z,5.65
2018-05-29T19:51:01.648Z,4.87
2018-05-29T19:53:29.064Z,5.50
2018-05-29T19:55:56.524Z,4.95
2018-05-29T19:58:23.940Z,5.20
2018-05-29T20:00:51.601Z,4.95
2018-05-29T20:03:19.691Z,5.70
2018-05-29T20:05:47.128Z,5.40
2018-05-29T20:08:14.609Z,5.28
2018-05-29T20:10:42.056Z,5.22
2018-05-29T20:13:09.587Z,5.55
2018-05-29T20:15:38.228Z,4.68
2018-05-29T20:18:05.644Z,5.15
2018-05-29T20:20:33.116Z,5.40
2018-05-29T20:23:01.584Z,6.00
2018-05-29T20:25:29.040Z,5.43
2018-05-29T20:27:56.640Z,5.28
2018-05-29T20:30:25.632Z,5.00
2018-05-29T20:32:53.089Z,5.25
2018-05-29T20:35:20.544Z,5.37
2018-05-29T20:37:47.972Z,5.65
2018-05-29T20:40:15.671Z,5.10
2018-05-29T20:42:43.121Z,5.05
2018-05-29T20:45:10.593Z,5.25
2018-05-29T20:47:39.147Z,5.10
2018-05-29T20:50:06.616Z,5.50
2018-05-29T20:52:34.252Z,5.32
2018-05-29T20:55:01.680Z,5.10
2018-05-29T20:57:29.139Z,5.18
2018-05-29T20:59:56.916Z,5.28
2018-05-29T21:02:24.368Z,5.15
2018-05-29T21:04:51.796Z,5.32
2018-05-29T21:07:19.636Z,5.25
2018-05-29T21:09:47.080Z,5.47
2018-05-29T21:12:14.527Z,4.93
2018-05-29T21:14:42.260Z,5.35
2018-05-29T21:17:10.140Z,5.20
2018-05-29T21:19:37.588Z,5.43
2018-05-29T21:22:05.038Z,5.40
2018-05-29T21:24:32.505Z,5.15
2018-05-29T21:26:59.964Z,5.68
2018-05-29T21:29:27.384Z,5.57
2018-05-29T21:31:55.128Z,5.32
2018-05-29T21:34:22.585Z,5.60
2018-05-29T21:36:50.045Z,5.57
2018-05-29T21:39:17.768Z,6.28
2018-05-29T21:41:45.236Z,5.93
2018-05-29T21:44:12.668Z,5.75
2018-05-29T21:46:40.128Z,5.82
2018-05-29T21:49:07.584Z,5.93
2018-05-29T21:51:35.036Z,5.57
2018-05-29T21:54:02.590Z,5.75
2018-05-29T21:56:30.052Z,6.32
2018-05-29T21:58:57.492Z,5.18
2018-05-29T22:01:26.112Z,5.75
2018-05-29T22:03:53.561Z,6.07
2018-05-29T22:06:21.064Z,5.57
2018-05-29T22:08:50.324Z,5.65
2018-05-29T22:11:17.792Z,5.43
2018-05-29T22:13:45.252Z,5.80
2018-05-29T22:16:12.698Z,5.60
2018-05-29T22:18:40.208Z,5.55
2018-05-29T22:21:08.411Z,5.70
2018-05-29T22:23:36.151Z,5.82
2018-05-29T22:26:03.604Z,5.55
2018-05-29T22:28:31.805Z,5.57
2018-05-29T22:30:59.731Z,5.93
2018-05-29T22:33:27.148Z,6.60
2018-05-29T22:35:54.620Z,6.20
2018-05-29T22:38:22.408Z,5.90
2018-05-29T22:40:49.840Z,5.55
2018-05-29T22:43:17.284Z,5.65
2018-05-29T22:45:44.740Z,5.82
2018-05-29T22:48:12.214Z,6.43
2018-05-29T22:50:39.664Z,6.15
2018-05-29T22:53:07.256Z,6.93
2018-05-29T22:55:35.454Z,6.40
2018-05-29T22:58:02.876Z,6.78
2018-05-29T23:00:30.344Z,6.28
2018-05-29T23:02:57.789Z,5.97
2018-05-29T23:05:25.256Z,5.57
2018-05-29T23:07:53.824Z,5.87
2018-05-29T23:10:21.267Z,6.18
2018-05-29T23:12:48.724Z,6.10
2018-05-29T23:15:16.209Z,5.60
2018-05-29T23:17:43.664Z,6.20
2018-05-29T23:20:11.128Z,6.57
2018-05-29T23:22:38.584Z,6.25
2018-05-29T23:25:06.840Z,6.12
2018-05-29T23:27:34.228Z,6.15
2018-05-29T23:30:01.720Z,6.35
2018-05-29T23:32:29.149Z,5.80
2018-05-29T23:34:56.576Z,5.72
2018-05-29T23:37:25.052Z,6.15
2018-05-29T23:39:52.481Z,5.70
2018-05-29T23:42:19.920Z,5.55
2018-05-29T23:44:48.521Z,6.07
2018-05-29T23:47:15.940Z,5.87
2018-05-29T23:49:43.364Z,5.95
2018-05-29T23:52:11.595Z,6.07
2018-05-29T23:54:39.043Z,5.93
2018-05-29T23:57:06.504Z,5.53
2018-05-29T23:59:33.960Z,6.25
